sensor_id;sensor_type;location;lat;lon;timestamp;pressure;altitude;pressure_sealevel;temperature;humidity
42289;BME280;30230;47.520;19.016;2023-03-19T00:01:08;99455.81;;;4.91;68.10
42289;BME280;30230;47.520;19.016;2023-03-19T00:03:08;99451.59;;;4.80;68.93
42289;BME280;30230;47.520;19.016;2023-03-19T00:05:08;99457.22;;;5.03;67.97
42289;BME280;30230;47.520;19.016;2023-03-19T00:07:09;99449.63;;;4.90;68.95
42289;BME280;30230;47.520;19.016;2023-03-19T00:09:10;99453.31;;;4.89;68.66
42289;BME280;30230;47.520;19.016;2023-03-19T00:11:12;99444.63;;;4.87;69.20
42289;BME280;30230;47.520;19.016;2023-03-19T00:13:12;99442.59;;;4.81;68.71
42289;BME280;30230;47.520;19.016;2023-03-19T00:15:13;99447.94;;;4.89;68.41
42289;BME280;30230;47.520;19.016;2023-03-19T00:17:14;99448.31;;;4.94;68.63
42289;BME280;30230;47.520;19.016;2023-03-19T00:19:15;99434.22;;;4.84;69.21
42289;BME280;30230;47.520;19.016;2023-03-19T00:21:16;99447.78;;;4.91;68.92
42289;BME280;30230;47.520;19.016;2023-03-19T00:23:16;99441.59;;;4.82;69.06
42289;BME280;30230;47.520;19.016;2023-03-19T00:25:17;99434.34;;;4.75;70.11
42289;BME280;30230;47.520;19.016;2023-03-19T00:27:17;99435.19;;;4.75;69.97
42289;BME280;30230;47.520;19.016;2023-03-19T00:29:17;99432.03;;;4.80;69.87
42289;BME280;30230;47.520;19.016;2023-03-19T00:31:18;99436.19;;;4.74;70.59
42289;BME280;30230;47.520;19.016;2023-03-19T00:33:19;99432.16;;;4.70;69.96
42289;BME280;30230;47.520;19.016;2023-03-19T00:35:20;99433.50;;;4.66;70.62
42289;BME280;30230;47.520;19.016;2023-03-19T00:37:20;99432.31;;;4.60;70.40
42289;BME280;30230;47.520;19.016;2023-03-19T00:39:21;99436.78;;;4.52;70.78
42289;BME280;30230;47.520;19.016;2023-03-19T00:41:22;99427.09;;;4.51;70.54
42289;BME280;30230;47.520;19.016;2023-03-19T00:43:23;99426.03;;;4.43;71.67
42289;BME280;30230;47.520;19.016;2023-03-19T00:45:24;99434.41;;;4.40;71.48
42289;BME280;30230;47.520;19.016;2023-03-19T00:47:24;99429.88;;;4.41;71.60
42289;BME280;30230;47.520;19.016;2023-03-19T00:49:25;99420.16;;;4.32;72.30
42289;BME280;30230;47.520;19.016;2023-03-19T00:51:25;99426.16;;;4.34;72.26
42289;BME280;30230;47.520;19.016;2023-03-19T00:53:25;99425.03;;;4.36;72.46
42289;BME280;30230;47.520;19.016;2023-03-19T00:55:26;99418.78;;;4.28;71.96
42289;BME280;30230;47.520;19.016;2023-03-19T00:57:26;99415.97;;;4.29;72.01
42289;BME280;30230;47.520;19.016;2023-03-19T00:59:27;99415.75;;;4.23;72.22
42289;BME280;30230;47.520;19.016;2023-03-19T01:01:28;99419.38;;;4.13;72.59
42289;BME280;30230;47.520;19.016;2023-03-19T01:03:28;99428.72;;;4.09;72.93
42289;BME280;30230;47.520;19.016;2023-03-19T01:05:29;99427.53;;;4.04;73.16
42289;BME280;30230;47.520;19.016;2023-03-19T01:07:30;99429.19;;;4.05;72.80
42289;BME280;30230;47.520;19.016;2023-03-19T01:09:30;99422.69;;;4.07;72.21
42289;BME280;30230;47.520;19.016;2023-03-19T01:11:30;99425.53;;;4.06;72.34
42289;BME280;30230;47.520;19.016;2023-03-19T01:13:31;99423.16;;;4.03;73.19
42289;BME280;30230;47.520;19.016;2023-03-19T01:15:35;99432.16;;;4.02;73.21
42289;BME280;30230;47.520;19.016;2023-03-19T01:17:37;99441.13;;;3.92;73.02
42289;BME280;30230;47.520;19.016;2023-03-19T01:19:37;99435.56;;;3.86;73.91
42289;BME280;30230;47.520;19.016;2023-03-19T01:21:37;99433.91;;;3.85;73.68
42289;BME280;30230;47.520;19.016;2023-03-19T01:23:38;99427.72;;;3.84;73.21
42289;BME280;30230;47.520;19.016;2023-03-19T01:25:38;99420.84;;;3.82;73.15
42289;BME280;30230;47.520;19.016;2023-03-19T01:27:39;99422.31;;;3.76;72.87
42289;BME280;30230;47.520;19.016;2023-03-19T01:29:39;99426.31;;;3.72;73.80
42289;BME280;30230;47.520;19.016;2023-03-19T01:31:40;99424.31;;;3.74;73.53
42289;BME280;30230;47.520;19.016;2023-03-19T01:33:41;99429.66;;;3.74;73.13
42289;BME280;30230;47.520;19.016;2023-03-19T01:35:44;99422.09;;;3.70;73.80
42289;BME280;30230;47.520;19.016;2023-03-19T01:37:46;99415.84;;;3.79;72.88
42289;BME280;30230;47.520;19.016;2023-03-19T01:39:47;99419.50;;;3.78;73.28
42289;BME280;30230;47.520;19.016;2023-03-19T01:41:48;99416.75;;;3.70;73.01
42289;BME280;30230;47.520;19.016;2023-03-19T01:43:48;99415.63;;;3.72;73.24
42289;BME280;30230;47.520;19.016;2023-03-19T01:45:51;99414.25;;;3.68;73.18
42289;BME280;30230;47.520;19.016;2023-03-19T01:47:53;99419.06;;;3.64;72.67
42289;BME280;30230;47.520;19.016;2023-03-19T01:49:55;99420.59;;;3.67;74.01
42289;BME280;30230;47.520;19.016;2023-03-19T01:51:58;99418.13;;;3.74;73.56
42289;BME280;30230;47.520;19.016;2023-03-19T01:54:03;99419.28;;;3.71;73.93
42289;BME280;30230;47.520;19.016;2023-03-19T01:56:17;99419.91;;;3.65;73.62
42289;BME280;30230;47.520;19.016;2023-03-19T01:58:19;99431.22;;;3.59;74.04
42289;BME280;30230;47.520;19.016;2023-03-19T02:00:20;99420.00;;;3.55;74.31
42289;BME280;30230;47.520;19.016;2023-03-19T02:04:30;99423.50;;;3.56;73.84
42289;BME280;30230;47.520;19.016;2023-03-19T02:06:31;99414.44;;;3.49;74.54
42289;BME280;30230;47.520;19.016;2023-03-19T02:08:32;99419.31;;;3.53;74.41
42289;BME280;30230;47.520;19.016;2023-03-19T02:10:34;99414.50;;;3.57;74.27
42289;BME280;30230;47.520;19.016;2023-03-19T02:12:35;99402.22;;;3.46;74.93
42289;BME280;30230;47.520;19.016;2023-03-19T02:14:36;99413.13;;;3.53;75.64
42289;BME280;30230;47.520;19.016;2023-03-19T02:16:36;99418.16;;;3.56;74.83
42289;BME280;30230;47.520;19.016;2023-03-19T02:18:37;99413.81;;;3.55;75.17
42289;BME280;30230;47.520;19.016;2023-03-19T02:22:59;99413.59;;;3.48;75.54
42289;BME280;30230;47.520;19.016;2023-03-19T02:27:12;99411.69;;;3.40;74.28
42289;BME280;30230;47.520;19.016;2023-03-19T02:29:12;99408.63;;;3.35;74.95
42289;BME280;30230;47.520;19.016;2023-03-19T02:31:13;99408.88;;;3.42;74.68
42289;BME280;30230;47.520;19.016;2023-03-19T02:33:16;99409.97;;;3.31;75.17
42289;BME280;30230;47.520;19.016;2023-03-19T02:35:17;99413.22;;;3.25;75.62
42289;BME280;30230;47.520;19.016;2023-03-19T02:39:27;99401.50;;;3.18;76.29
42289;BME280;30230;47.520;19.016;2023-03-19T02:41:30;99409.22;;;3.21;76.73
42289;BME280;30230;47.520;19.016;2023-03-19T02:43:33;99403.16;;;3.19;77.06
42289;BME280;30230;47.520;19.016;2023-03-19T02:45:34;99409.50;;;3.18;76.63
42289;BME280;30230;47.520;19.016;2023-03-19T02:47:35;99404.84;;;3.20;76.32
42289;BME280;30230;47.520;19.016;2023-03-19T02:49:35;99400.50;;;3.19;75.92
42289;BME280;30230;47.520;19.016;2023-03-19T02:51:36;99397.00;;;3.19;75.78
42289;BME280;30230;47.520;19.016;2023-03-19T02:53:36;99396.16;;;3.18;75.59
42289;BME280;30230;47.520;19.016;2023-03-19T02:55:37;99407.38;;;3.22;75.93
42289;BME280;30230;47.520;19.016;2023-03-19T02:57:37;99403.63;;;3.14;75.78
42289;BME280;30230;47.520;19.016;2023-03-19T02:59:38;99399.59;;;3.10;76.21
42289;BME280;30230;47.520;19.016;2023-03-19T03:01:38;99400.34;;;3.03;75.78
42289;BME280;30230;47.520;19.016;2023-03-19T03:03:38;99410.78;;;2.96;76.03
42289;BME280;30230;47.520;19.016;2023-03-19T03:05:39;99411.63;;;2.97;76.75
42289;BME280;30230;47.520;19.016;2023-03-19T03:07:39;99404.91;;;2.93;76.00
42289;BME280;30230;47.520;19.016;2023-03-19T03:09:42;99413.31;;;2.98;76.00
42289;BME280;30230;47.520;19.016;2023-03-19T03:11:42;99414.22;;;3.06;75.44
42289;BME280;30230;47.520;19.016;2023-03-19T03:13:43;99406.69;;;3.02;77.01
42289;BME280;30230;47.520;19.016;2023-03-19T03:15:43;99414.75;;;3.10;76.91
42289;BME280;30230;47.520;19.016;2023-03-19T03:17:44;99408.75;;;3.08;76.83
42289;BME280;30230;47.520;19.016;2023-03-19T03:19:45;99408.44;;;3.11;76.70
42289;BME280;30230;47.520;19.016;2023-03-19T03:21:45;99404.56;;;3.05;75.89
42289;BME280;30230;47.520;19.016;2023-03-19T03:23:46;99407.13;;;2.97;76.28
42289;BME280;30230;47.520;19.016;2023-03-19T03:25:49;99404.09;;;2.92;75.96
42289;BME280;30230;47.520;19.016;2023-03-19T03:27:49;99420.53;;;2.87;77.10
42289;BME280;30230;47.520;19.016;2023-03-19T03:29:50;99421.81;;;2.83;76.79
42289;BME280;30230;47.520;19.016;2023-03-19T03:31:50;99406.59;;;2.76;76.33
42289;BME280;30230;47.520;19.016;2023-03-19T03:33:51;99411.16;;;2.83;76.44
42289;BME280;30230;47.520;19.016;2023-03-19T03:35:51;99406.13;;;2.80;77.31
42289;BME280;30230;47.520;19.016;2023-03-19T03:37:52;99411.31;;;2.82;76.68
42289;BME280;30230;47.520;19.016;2023-03-19T03:39:52;99411.31;;;2.82;77.12
42289;BME280;30230;47.520;19.016;2023-03-19T03:41:53;99411.09;;;2.75;77.32
42289;BME280;30230;47.520;19.016;2023-03-19T03:43:53;99408.03;;;2.70;77.86
42289;BME280;30230;47.520;19.016;2023-03-19T03:45:53;99404.66;;;2.68;77.96
42289;BME280;30230;47.520;19.016;2023-03-19T03:47:54;99416.06;;;2.60;78.99
42289;BME280;30230;47.520;19.016;2023-03-19T03:49:54;99411.03;;;2.57;78.54
42289;BME280;30230;47.520;19.016;2023-03-19T03:51:55;99408.53;;;2.56;77.99
42289;BME280;30230;47.520;19.016;2023-03-19T03:53:56;99407.84;;;2.54;78.65
42289;BME280;30230;47.520;19.016;2023-03-19T03:55:56;99403.19;;;2.56;78.61
42289;BME280;30230;47.520;19.016;2023-03-19T03:57:57;99408.53;;;2.56;77.98
42289;BME280;30230;47.520;19.016;2023-03-19T03:59:57;99407.28;;;2.50;77.83
42289;BME280;30230;47.520;19.016;2023-03-19T04:01:58;99412.72;;;2.58;77.86
42289;BME280;30230;47.520;19.016;2023-03-19T04:03:58;99403.69;;;2.42;78.89
42289;BME280;30230;47.520;19.016;2023-03-19T04:05:59;99407.44;;;2.49;77.96
42289;BME280;30230;47.520;19.016;2023-03-19T04:07:59;99413.31;;;2.52;78.39
42289;BME280;30230;47.520;19.016;2023-03-19T04:10:00;99417.50;;;2.55;78.05
42289;BME280;30230;47.520;19.016;2023-03-19T04:12:01;99413.81;;;2.66;77.11
42289;BME280;30230;47.520;19.016;2023-03-19T04:14:01;99411.13;;;2.66;77.57
42289;BME280;30230;47.520;19.016;2023-03-19T04:16:03;99411.84;;;2.85;77.49
42289;BME280;30230;47.520;19.016;2023-03-19T04:18:04;99409.72;;;3.07;74.28
42289;BME280;30230;47.520;19.016;2023-03-19T04:20:06;99408.91;;;3.06;75.66
42289;BME280;30230;47.520;19.016;2023-03-19T04:22:06;99396.78;;;3.12;75.57
42289;BME280;30230;47.520;19.016;2023-03-19T04:24:07;99398.22;;;3.06;75.74
42289;BME280;30230;47.520;19.016;2023-03-19T04:26:09;99401.19;;;3.03;76.25
42289;BME280;30230;47.520;19.016;2023-03-19T04:28:11;99395.47;;;2.98;76.17
42289;BME280;30230;47.520;19.016;2023-03-19T04:30:12;99396.25;;;2.91;76.57
42289;BME280;30230;47.520;19.016;2023-03-19T04:32:13;99396.38;;;2.89;76.61
42289;BME280;30230;47.520;19.016;2023-03-19T04:34:13;99391.34;;;2.86;76.46
42289;BME280;30230;47.520;19.016;2023-03-19T04:36:13;99388.97;;;2.83;77.35
42289;BME280;30230;47.520;19.016;2023-03-19T04:38:14;99377.31;;;2.84;76.58
42289;BME280;30230;47.520;19.016;2023-03-19T04:40:15;99377.47;;;2.82;76.39
42289;BME280;30230;47.520;19.016;2023-03-19T04:42:16;99389.81;;;2.83;76.55
42289;BME280;30230;47.520;19.016;2023-03-19T04:44:16;99388.28;;;2.81;76.11
42289;BME280;30230;47.520;19.016;2023-03-19T04:46:17;99387.38;;;2.72;76.45
42289;BME280;30230;47.520;19.016;2023-03-19T04:48:17;99392.25;;;2.77;76.66
42289;BME280;30230;47.520;19.016;2023-03-19T04:50:18;99396.19;;;2.73;76.70
42289;BME280;30230;47.520;19.016;2023-03-19T04:52:19;99406.09;;;2.63;77.09
42289;BME280;30230;47.520;19.016;2023-03-19T04:54:19;99400.53;;;2.56;77.47
42289;BME280;30230;47.520;19.016;2023-03-19T04:56:19;99407.28;;;2.50;77.99
42289;BME280;30230;47.520;19.016;2023-03-19T04:58:21;99407.69;;;2.55;76.44
42289;BME280;30230;47.520;19.016;2023-03-19T05:00:22;99406.00;;;2.54;76.52
42289;BME280;30230;47.520;19.016;2023-03-19T05:02:22;99412.34;;;2.53;76.78
42289;BME280;30230;47.520;19.016;2023-03-19T05:04:22;99406.84;;;2.55;76.87
42289;BME280;30230;47.520;19.016;2023-03-19T05:06:24;99408.97;;;2.51;78.17
42289;BME280;30230;47.520;19.016;2023-03-19T05:08:26;99411.78;;;2.50;77.78
42289;BME280;30230;47.520;19.016;2023-03-19T05:10:26;99408.72;;;2.45;77.64
42289;BME280;30230;47.520;19.016;2023-03-19T05:12:27;99408.19;;;2.41;78.47
42289;BME280;30230;47.520;19.016;2023-03-19T05:14:27;99414.06;;;2.45;78.22
42289;BME280;30230;47.520;19.016;2023-03-19T05:16:28;99419.06;;;2.48;78.43
42289;BME280;30230;47.520;19.016;2023-03-19T05:18:28;99421.75;;;2.48;78.64
42289;BME280;30230;47.520;19.016;2023-03-19T05:20:28;99419.41;;;2.45;78.12
42289;BME280;30230;47.520;19.016;2023-03-19T05:22:29;99415.50;;;2.39;79.56
42289;BME280;30230;47.520;19.016;2023-03-19T05:24:30;99421.06;;;2.46;78.79
42289;BME280;30230;47.520;19.016;2023-03-19T05:26:30;99418.00;;;2.41;78.89
42289;BME280;30230;47.520;19.016;2023-03-19T05:28:31;99431.72;;;2.46;78.30
42289;BME280;30230;47.520;19.016;2023-03-19T05:30:33;99421.34;;;2.43;79.35
42289;BME280;30230;47.520;19.016;2023-03-19T05:32:33;99427.22;;;2.46;79.33
42289;BME280;30230;47.520;19.016;2023-03-19T05:34:35;99419.88;;;2.58;78.97
42289;BME280;30230;47.520;19.016;2023-03-19T05:36:35;99412.56;;;2.60;79.47
42289;BME280;30230;47.520;19.016;2023-03-19T05:38:36;99424.31;;;2.67;79.06
42289;BME280;30230;47.520;19.016;2023-03-19T05:40:36;99425.16;;;2.68;78.79
42289;BME280;30230;47.520;19.016;2023-03-19T05:42:37;99434.53;;;2.72;79.18
42289;BME280;30230;47.520;19.016;2023-03-19T05:44:37;99430.44;;;2.77;78.86
42289;BME280;30230;47.520;19.016;2023-03-19T05:46:37;99437.53;;;2.86;78.21
42289;BME280;30230;47.520;19.016;2023-03-19T05:48:38;99435.03;;;2.85;78.42
42289;BME280;30230;47.520;19.016;2023-03-19T05:50:38;99435.53;;;2.88;78.68
42289;BME280;30230;47.520;19.016;2023-03-19T05:52:40;99433.97;;;2.96;77.94
42289;BME280;30230;47.520;19.016;2023-03-19T05:54:41;99418.13;;;3.12;76.84
42289;BME280;30230;47.520;19.016;2023-03-19T05:56:41;99422.56;;;3.21;76.54
42289;BME280;30230;47.520;19.016;2023-03-19T05:58:42;99426.13;;;3.30;76.88
42289;BME280;30230;47.520;19.016;2023-03-19T06:00:42;99425.75;;;3.43;76.32
42289;BME280;30230;47.520;19.016;2023-03-19T06:02:43;99437.19;;;3.53;76.27
42289;BME280;30230;47.520;19.016;2023-03-19T06:04:43;99428.47;;;3.51;76.04
42289;BME280;30230;47.520;19.016;2023-03-19T06:06:44;99424.56;;;3.63;75.43
42289;BME280;30230;47.520;19.016;2023-03-19T06:08:44;99421.56;;;3.66;74.76
42289;BME280;30230;47.520;19.016;2023-03-19T06:10:45;99434.38;;;3.80;74.44
42289;BME280;30230;47.520;19.016;2023-03-19T06:12:46;99443.19;;;3.99;72.85
42289;BME280;30230;47.520;19.016;2023-03-19T06:14:46;99439.72;;;4.06;71.82
42289;BME280;30230;47.520;19.016;2023-03-19T06:16:47;99439.91;;;4.13;71.26
42289;BME280;30230;47.520;19.016;2023-03-19T06:18:47;99440.75;;;4.13;71.36
42289;BME280;30230;47.520;19.016;2023-03-19T06:20:48;99440.28;;;4.18;71.12
42289;BME280;30230;47.520;19.016;2023-03-19T06:22:48;99443.38;;;4.31;70.95
42289;BME280;30230;47.520;19.016;2023-03-19T06:24:49;99435.72;;;4.36;70.29
42289;BME280;30230;47.520;19.016;2023-03-19T06:26:49;99435.53;;;4.38;70.20
42289;BME280;30230;47.520;19.016;2023-03-19T06:28:50;99438.09;;;4.39;70.69
42289;BME280;30230;47.520;19.016;2023-03-19T06:30:54;99440.78;;;4.48;70.59
42289;BME280;30230;47.520;19.016;2023-03-19T06:32:55;99444.47;;;4.55;67.34
42289;BME280;30230;47.520;19.016;2023-03-19T06:34:55;99450.41;;;4.66;67.12
42289;BME280;30230;47.520;19.016;2023-03-19T06:36:56;99446.34;;;4.62;67.91
42289;BME280;30230;47.520;19.016;2023-03-19T06:38:56;99459.16;;;4.85;66.12
42289;BME280;30230;47.520;19.016;2023-03-19T06:40:57;99460.19;;;4.92;65.31
42289;BME280;30230;47.520;19.016;2023-03-19T06:42:57;99454.66;;;4.93;66.22
42289;BME280;30230;47.520;19.016;2023-03-19T06:44:58;99463.09;;;5.31;63.33
42289;BME280;30230;47.520;19.016;2023-03-19T06:46:58;99476.84;;;5.28;62.56
42289;BME280;30230;47.520;19.016;2023-03-19T06:48:59;99466.78;;;5.30;62.40
42289;BME280;30230;47.520;19.016;2023-03-19T06:50:59;99475.50;;;5.40;61.05
42289;BME280;30230;47.520;19.016;2023-03-19T06:53:00;99472.00;;;5.40;62.01
42289;BME280;30230;47.520;19.016;2023-03-19T06:55:01;99473.00;;;5.47;61.88
42289;BME280;30230;47.520;19.016;2023-03-19T06:57:02;99461.97;;;5.50;61.24
42289;BME280;30230;47.520;19.016;2023-03-19T06:59:02;99470.16;;;5.73;59.40
42289;BME280;30230;47.520;19.016;2023-03-19T07:01:03;99464.50;;;5.76;59.65
42289;BME280;30230;47.520;19.016;2023-03-19T07:03:04;99462.47;;;5.78;59.77
42289;BME280;30230;47.520;19.016;2023-03-19T07:05:04;99453.44;;;6.04;59.44
42289;BME280;30230;47.520;19.016;2023-03-19T07:07:05;99450.94;;;6.10;59.04
42289;BME280;30230;47.520;19.016;2023-03-19T07:09:06;99452.22;;;6.14;58.52
42289;BME280;30230;47.520;19.016;2023-03-19T07:11:07;99449.41;;;6.08;59.31
42289;BME280;30230;47.520;19.016;2023-03-19T07:13:07;99447.56;;;6.16;59.08
42289;BME280;30230;47.520;19.016;2023-03-19T07:15:08;99449.69;;;6.29;56.96
42289;BME280;30230;47.520;19.016;2023-03-19T07:17:08;99449.69;;;6.37;56.79
42289;BME280;30230;47.520;19.016;2023-03-19T07:19:08;99447.47;;;6.49;57.32
42289;BME280;30230;47.520;19.016;2023-03-19T07:21:09;99447.78;;;6.54;55.53
42289;BME280;30230;47.520;19.016;2023-03-19T07:23:09;99432.13;;;6.66;55.20
42289;BME280;30230;47.520;19.016;2023-03-19T07:25:11;99418.53;;;6.67;55.17
42289;BME280;30230;47.520;19.016;2023-03-19T07:27:11;99438.47;;;6.73;55.49
42289;BME280;30230;47.520;19.016;2023-03-19T07:29:12;99441.47;;;6.78;56.41
42289;BME280;30230;47.520;19.016;2023-03-19T07:31:13;99447.72;;;7.01;55.02
42289;BME280;30230;47.520;19.016;2023-03-19T07:33:13;99444.56;;;7.29;53.81
42289;BME280;30230;47.520;19.016;2023-03-19T07:35:14;99448.56;;;7.56;52.17
42289;BME280;30230;47.520;19.016;2023-03-19T07:37:14;99453.22;;;7.62;50.70
42289;BME280;30230;47.520;19.016;2023-03-19T07:39:15;99456.56;;;8.02;49.81
42289;BME280;30230;47.520;19.016;2023-03-19T07:41:16;99452.00;;;8.40;48.72
42289;BME280;30230;47.520;19.016;2023-03-19T07:43:16;99448.84;;;8.66;48.54
42289;BME280;30230;47.520;19.016;2023-03-19T07:45:17;99442.81;;;8.49;48.10
42289;BME280;30230;47.520;19.016;2023-03-19T07:47:17;99443.72;;;8.56;47.81
42289;BME280;30230;47.520;19.016;2023-03-19T07:49:18;99447.06;;;8.73;48.33
42289;BME280;30230;47.520;19.016;2023-03-19T07:51:18;99431.28;;;8.85;47.39
42289;BME280;30230;47.520;19.016;2023-03-19T07:53:19;99438.13;;;8.87;47.57
42289;BME280;30230;47.520;19.016;2023-03-19T07:55:19;99451.16;;;8.84;48.29
42289;BME280;30230;47.520;19.016;2023-03-19T07:57:20;99436.81;;;8.98;47.93
42289;BME280;30230;47.520;19.016;2023-03-19T07:59:21;99445.28;;;8.95;46.77
42289;BME280;30230;47.520;19.016;2023-03-19T08:01:21;99430.63;;;8.68;47.34
42289;BME280;30230;47.520;19.016;2023-03-19T08:03:21;99444.97;;;8.54;47.17
42289;BME280;30230;47.520;19.016;2023-03-19T08:05:22;99437.44;;;8.49;47.52
42289;BME280;30230;47.520;19.016;2023-03-19T08:07:22;99436.50;;;8.57;48.67
42289;BME280;30230;47.520;19.016;2023-03-19T08:09:23;99434.81;;;8.71;48.75
42289;BME280;30230;47.520;19.016;2023-03-19T08:11:23;99432.84;;;8.94;48.02
42289;BME280;30230;47.520;19.016;2023-03-19T08:13:24;99435.38;;;9.17;46.38
42289;BME280;30230;47.520;19.016;2023-03-19T08:15:24;99428.97;;;9.39;46.12
42289;BME280;30230;47.520;19.016;2023-03-19T08:17:24;99420.44;;;9.57;45.93
42289;BME280;30230;47.520;19.016;2023-03-19T08:19:26;99424.44;;;9.89;44.97
42289;BME280;30230;47.520;19.016;2023-03-19T08:21:26;99420.50;;;9.92;43.48
42289;BME280;30230;47.520;19.016;2023-03-19T08:23:27;99419.59;;;10.06;44.17
42289;BME280;30230;47.520;19.016;2023-03-19T08:25:27;99425.19;;;10.05;45.08
42289;BME280;30230;47.520;19.016;2023-03-19T08:27:32;99426.00;;;10.27;43.59
42289;BME280;30230;47.520;19.016;2023-03-19T08:29:34;99419.78;;;10.33;43.34
42289;BME280;30230;47.520;19.016;2023-03-19T08:31:35;99425.72;;;10.22;43.31
42289;BME280;30230;47.520;19.016;2023-03-19T08:33:37;99433.53;;;10.38;43.20
42289;BME280;30230;47.520;19.016;2023-03-19T08:35:37;99426.56;;;10.50;47.27
42289;BME280;30230;47.520;19.016;2023-03-19T08:37:38;99426.34;;;10.52;43.02
42289;BME280;30230;47.520;19.016;2023-03-19T08:39:38;99424.50;;;10.59;43.22
42289;BME280;30230;47.520;19.016;2023-03-19T08:41:39;99432.63;;;10.59;43.83
42289;BME280;30230;47.520;19.016;2023-03-19T08:43:39;99431.69;;;10.80;42.21
42289;BME280;30230;47.520;19.016;2023-03-19T08:45:40;99429.25;;;10.50;42.15
42289;BME280;30230;47.520;19.016;2023-03-19T08:47:41;99433.78;;;10.84;41.20
42289;BME280;30230;47.520;19.016;2023-03-19T08:49:42;99423.28;;;11.03;42.36
42289;BME280;30230;47.520;19.016;2023-03-19T08:51:42;99426.84;;;11.16;41.50
42289;BME280;30230;47.520;19.016;2023-03-19T08:53:43;99424.34;;;11.21;41.78
42289;BME280;30230;47.520;19.016;2023-03-19T08:55:44;99424.56;;;11.27;42.34
42289;BME280;30230;47.520;19.016;2023-03-19T08:57:44;99413.34;;;11.30;41.09
42289;BME280;30230;47.520;19.016;2023-03-19T08:59:45;99410.28;;;11.53;44.49
42289;BME280;30230;47.520;19.016;2023-03-19T09:01:50;99422.00;;;11.86;43.76
42289;BME280;30230;47.520;19.016;2023-03-19T09:03:51;99408.97;;;12.55;48.87
42289;BME280;30230;47.520;19.016;2023-03-19T09:05:51;99408.78;;;13.01;45.22
42289;BME280;30230;47.520;19.016;2023-03-19T09:07:52;99411.91;;;13.04;40.78
42289;BME280;30230;47.520;19.016;2023-03-19T09:09:52;99407.31;;;13.05;37.46
42289;BME280;30230;47.520;19.016;2023-03-19T09:11:53;99403.69;;;12.80;37.57
42289;BME280;30230;47.520;19.016;2023-03-19T09:13:53;99399.81;;;12.49;38.56
42289;BME280;30230;47.520;19.016;2023-03-19T09:15:54;99404.22;;;12.37;40.45
42289;BME280;30230;47.520;19.016;2023-03-19T09:17:55;99400.25;;;12.46;40.23
42289;BME280;30230;47.520;19.016;2023-03-19T09:19:55;99404.75;;;12.72;41.77
42289;BME280;30230;47.520;19.016;2023-03-19T09:21:55;99408.03;;;12.87;41.17
42289;BME280;30230;47.520;19.016;2023-03-19T09:23:56;99408.50;;;12.77;39.65
42289;BME280;30230;47.520;19.016;2023-03-19T09:25:56;99406.56;;;12.85;38.69
42289;BME280;30230;47.520;19.016;2023-03-19T09:27:57;99408.50;;;12.77;37.92
42289;BME280;30230;47.520;19.016;2023-03-19T09:29:57;99414.06;;;12.89;39.50
42289;BME280;30230;47.520;19.016;2023-03-19T09:31:57;99401.56;;;12.82;38.03
42289;BME280;30230;47.520;19.016;2023-03-19T09:33:59;99399.13;;;12.73;38.56
42289;BME280;30230;47.520;19.016;2023-03-19T09:36:00;99394.75;;;12.66;36.81
42289;BME280;30230;47.520;19.016;2023-03-19T09:38:00;99409.69;;;12.88;38.41
42289;BME280;30230;47.520;19.016;2023-03-19T09:40:04;99402.50;;;13.07;40.41
42289;BME280;30230;47.520;19.016;2023-03-19T09:44:10;99393.59;;;13.38;37.46
42289;BME280;30230;47.520;19.016;2023-03-19T09:46:18;99388.13;;;13.45;38.13
42289;BME280;30230;47.520;19.016;2023-03-19T09:48:34;99383.44;;;13.84;39.67
42289;BME280;30230;47.520;19.016;2023-03-19T09:50:38;99365.88;;;14.11;40.36
42289;BME280;30230;47.520;19.016;2023-03-19T09:52:46;99375.84;;;14.17;37.44
42289;BME280;30230;47.520;19.016;2023-03-19T09:54:49;99381.16;;;14.05;34.99
42289;BME280;30230;47.520;19.016;2023-03-19T09:56:53;99371.59;;;14.21;36.34
42289;BME280;30230;47.520;19.016;2023-03-19T09:58:55;99383.03;;;14.67;35.71
42289;BME280;30230;47.520;19.016;2023-03-19T10:00:55;99381.97;;;15.04;36.32
42289;BME280;30230;47.520;19.016;2023-03-19T10:08:11;99385.53;;;14.87;34.06
42289;BME280;30230;47.520;19.016;2023-03-19T10:10:33;99382.28;;;14.78;34.32
42289;BME280;30230;47.520;19.016;2023-03-19T10:13:01;99380.25;;;14.55;33.91
42289;BME280;30230;47.520;19.016;2023-03-19T10:17:37;99379.09;;;14.44;35.15
42289;BME280;30230;47.520;19.016;2023-03-19T10:19:45;99364.97;;;14.36;36.27
42289;BME280;30230;47.520;19.016;2023-03-19T10:21:52;99375.75;;;14.49;34.24
42289;BME280;30230;47.520;19.016;2023-03-19T10:24:17;99377.50;;;14.37;34.99
42289;BME280;30230;47.520;19.016;2023-03-19T10:26:27;99377.78;;;14.10;35.07
42289;BME280;30230;47.520;19.016;2023-03-19T10:28:29;99361.97;;;14.00;35.32
42289;BME280;30230;47.520;19.016;2023-03-19T10:30:31;99364.50;;;14.02;34.65
42289;BME280;30230;47.520;19.016;2023-03-19T10:32:43;99357.25;;;14.14;35.53
42289;BME280;30230;47.520;19.016;2023-03-19T10:34:50;99362.25;;;14.36;36.11
42289;BME280;30230;47.520;19.016;2023-03-19T10:39:16;99358.94;;;14.89;33.59
42289;BME280;30230;47.520;19.016;2023-03-19T10:43:42;99350.09;;;15.35;34.40
42289;BME280;30230;47.520;19.016;2023-03-19T10:45:43;99347.63;;;15.33;34.84
42289;BME280;30230;47.520;19.016;2023-03-19T10:47:44;99342.00;;;15.47;34.62
42289;BME280;30230;47.520;19.016;2023-03-19T10:49:44;99329.69;;;15.56;32.64
42289;BME280;30230;47.520;19.016;2023-03-19T10:51:45;99324.56;;;15.36;32.68
42289;BME280;30230;47.520;19.016;2023-03-19T10:53:45;99331.44;;;15.50;32.11
42289;BME280;30230;47.520;19.016;2023-03-19T10:55:54;99323.09;;;15.75;31.91
42289;BME280;30230;47.520;19.016;2023-03-19T10:58:14;99324.59;;;15.59;32.09
42289;BME280;30230;47.520;19.016;2023-03-19T11:00:16;99323.09;;;15.75;31.42
42289;BME280;30230;47.520;19.016;2023-03-19T11:02:23;99322.63;;;16.02;32.30
42289;BME280;30230;47.520;19.016;2023-03-19T11:04:26;99320.50;;;16.04;33.50